sensor_id;sensor_type;location;lat;lon;timestamp;P1;durP1;ratioP1;P2;durP2;ratioP2
72761;SDS011;60886;55.034;73.150;2022-11-04T00:02:08;7.88;;;2.30;;
72761;SDS011;60886;55.034;73.150;2022-11-04T00:04:34;6.93;;;1.95;;
72761;SDS011;60886;55.034;73.150;2022-11-04T00:07:01;7.03;;;2.10;;
72761;SDS011;60886;55.034;73.150;2022-11-04T00:09:47;5.73;;;1.80;;
72761;SDS011;60886;55.034;73.150;2022-11-04T00:12:13;5.25;;;1.65;;
72761;SDS011;60886;55.034;73.150;2022-11-04T00:14:56;6.70;;;1.98;;
72761;SDS011;60886;55.034;73.150;2022-11-04T00:17:51;7.28;;;1.83;;
72761;SDS011;60886;55.034;73.150;2022-11-04T00:20:18;9.68;;;2.20;;
72761;SDS011;60886;55.034;73.150;2022-11-04T00:23:03;8.30;;;2.20;;
72761;SDS011;60886;55.034;73.150;2022-11-04T00:25:47;7.88;;;2.30;;
72761;SDS011;60886;55.034;73.150;2022-11-04T00:28:32;8.20;;;2.00;;
72761;SDS011;60886;55.034;73.150;2022-11-04T00:31:12;7.90;;;2.10;;
72761;SDS011;60886;55.034;73.150;2022-11-04T00:33:57;6.72;;;1.98;;
72761;SDS011;60886;55.034;73.150;2022-11-04T00:36:24;7.23;;;1.93;;
72761;SDS011;60886;55.034;73.150;2022-11-04T00:38:52;6.28;;;1.80;;
72761;SDS011;60886;55.034;73.150;2022-11-04T00:41:28;6.97;;;1.98;;
72761;SDS011;60886;55.034;73.150;2022-11-04T00:43:57;6.72;;;1.80;;
72761;SDS011;60886;55.034;73.150;2022-11-04T00:46:30;7.00;;;1.83;;
72761;SDS011;60886;55.034;73.150;2022-11-04T00:48:58;5.97;;;2.00;;
72761;SDS011;60886;55.034;73.150;2022-11-04T00:51:25;6.20;;;1.80;;
72761;SDS011;60886;55.034;73.150;2022-11-04T00:53:52;6.18;;;1.90;;
72761;SDS011;60886;55.034;73.150;2022-11-04T00:56:19;7.40;;;1.83;;
72761;SDS011;60886;55.034;73.150;2022-11-04T00:58:47;6.38;;;1.70;;
72761;SDS011;60886;55.034;73.150;2022-11-04T01:01:15;6.23;;;1.80;;
72761;SDS011;60886;55.034;73.150;2022-11-04T01:03:53;6.53;;;1.90;;
72761;SDS011;60886;55.034;73.150;2022-11-04T01:06:20;6.70;;;1.90;;
72761;SDS011;60886;55.034;73.150;2022-11-04T01:08:53;6.20;;;1.90;;
72761;SDS011;60886;55.034;73.150;2022-11-04T01:11:24;7.95;;;1.85;;
72761;SDS011;60886;55.034;73.150;2022-11-04T01:13:53;6.77;;;1.70;;
72761;SDS011;60886;55.034;73.150;2022-11-04T01:16:20;7.45;;;1.80;;
72761;SDS011;60886;55.034;73.150;2022-11-04T01:18:47;7.00;;;2.00;;
72761;SDS011;60886;55.034;73.150;2022-11-04T01:21:14;6.82;;;2.08;;
72761;SDS011;60886;55.034;73.150;2022-11-04T01:23:42;7.45;;;1.80;;
72761;SDS011;60886;55.034;73.150;2022-11-04T01:26:19;7.63;;;2.07;;
72761;SDS011;60886;55.034;73.150;2022-11-04T01:28:48;6.78;;;1.80;;
72761;SDS011;60886;55.034;73.150;2022-11-04T01:31:16;7.15;;;1.95;;
72761;SDS011;60886;55.034;73.150;2022-11-04T01:33:56;6.03;;;2.15;;
72761;SDS011;60886;55.034;73.150;2022-11-04T01:36:23;6.90;;;2.22;;
72761;SDS011;60886;55.034;73.150;2022-11-04T01:38:50;8.57;;;2.57;;
72761;SDS011;60886;55.034;73.150;2022-11-04T01:41:18;7.63;;;2.55;;
72761;SDS011;60886;55.034;73.150;2022-11-04T01:46:28;8.15;;;2.42;;
72761;SDS011;60886;55.034;73.150;2022-11-04T01:49:25;9.23;;;2.95;;
72761;SDS011;60886;55.034;73.150;2022-11-04T01:51:55;8.43;;;2.67;;
72761;SDS011;60886;55.034;73.150;2022-11-04T01:54:27;8.77;;;3.20;;
72761;SDS011;60886;55.034;73.150;2022-11-04T01:56:54;8.35;;;3.95;;
72761;SDS011;60886;55.034;73.150;2022-11-04T01:59:29;11.07;;;4.50;;
72761;SDS011;60886;55.034;73.150;2022-11-04T02:02:01;12.50;;;5.45;;
72761;SDS011;60886;55.034;73.150;2022-11-04T02:04:28;12.73;;;5.60;;
72761;SDS011;60886;55.034;73.150;2022-11-04T02:06:56;11.35;;;5.32;;
72761;SDS011;60886;55.034;73.150;2022-11-04T02:09:35;12.75;;;5.90;;
72761;SDS011;60886;55.034;73.150;2022-11-04T02:12:03;13.30;;;5.55;;
72761;SDS011;60886;55.034;73.150;2022-11-04T02:14:48;11.23;;;5.30;;
72761;SDS011;60886;55.034;73.150;2022-11-04T02:28:41;13.38;;;7.13;;
72761;SDS011;60886;55.034;73.150;2022-11-04T02:33:51;26.60;;;11.23;;
72761;SDS011;60886;55.034;73.150;2022-11-04T02:36:31;14.63;;;7.03;;
72761;SDS011;60886;55.034;73.150;2022-11-04T02:39:18;13.57;;;6.35;;
72761;SDS011;60886;55.034;73.150;2022-11-04T02:41:55;12.52;;;4.70;;
72761;SDS011;60886;55.034;73.150;2022-11-04T02:44:33;10.77;;;4.60;;
72761;SDS011;60886;55.034;73.150;2022-11-04T02:47:03;7.97;;;3.13;;
72761;SDS011;60886;55.034;73.150;2022-11-04T02:55:20;7.57;;;2.42;;
72761;SDS011;60886;55.034;73.150;2022-11-04T02:57:52;6.63;;;2.20;;
72761;SDS011;60886;55.034;73.150;2022-11-04T03:00:21;9.57;;;2.60;;
72761;SDS011;60886;55.034;73.150;2022-11-04T03:02:52;7.35;;;2.35;;
72761;SDS011;60886;55.034;73.150;2022-11-04T03:05:32;7.75;;;2.63;;
72761;SDS011;60886;55.034;73.150;2022-11-04T03:08:06;7.32;;;2.33;;
72761;SDS011;60886;55.034;73.150;2022-11-04T03:10:41;6.30;;;2.10;;
72761;SDS011;60886;55.034;73.150;2022-11-04T03:15:46;6.93;;;2.42;;
72761;SDS011;60886;55.034;73.150;2022-11-04T03:18:32;7.30;;;2.40;;
72761;SDS011;60886;55.034;73.150;2022-11-04T03:21:07;10.40;;;2.95;;
72761;SDS011;60886;55.034;73.150;2022-11-04T03:23:36;8.43;;;2.80;;
72761;SDS011;60886;55.034;73.150;2022-11-04T03:26:11;7.22;;;2.78;;
72761;SDS011;60886;55.034;73.150;2022-11-04T03:29:03;8.27;;;3.20;;
72761;SDS011;60886;55.034;73.150;2022-11-04T03:32:02;6.93;;;2.63;;
72761;SDS011;60886;55.034;73.150;2022-11-04T03:34:34;6.82;;;2.15;;
72761;SDS011;60886;55.034;73.150;2022-11-04T03:37:07;7.40;;;2.23;;
72761;SDS011;60886;55.034;73.150;2022-11-04T03:39:45;7.55;;;2.47;;
72761;SDS011;60886;55.034;73.150;2022-11-04T03:42:16;8.52;;;2.35;;
72761;SDS011;60886;55.034;73.150;2022-11-04T03:45:05;12.07;;;3.90;;
72761;SDS011;60886;55.034;73.150;2022-11-04T03:47:31;7.47;;;2.42;;
72761;SDS011;60886;55.034;73.150;2022-11-04T03:50:00;8.53;;;2.90;;
72761;SDS011;60886;55.034;73.150;2022-11-04T03:52:34;8.00;;;2.63;;
72761;SDS011;60886;55.034;73.150;2022-11-04T03:55:02;9.85;;;3.72;;
72761;SDS011;60886;55.034;73.150;2022-11-04T04:05:13;15.68;;;7.53;;
72761;SDS011;60886;55.034;73.150;2022-11-04T04:07:51;18.67;;;8.75;;
72761;SDS011;60886;55.034;73.150;2022-11-04T04:10:34;18.00;;;8.10;;
72761;SDS011;60886;55.034;73.150;2022-11-04T04:16:07;14.23;;;5.30;;
72761;SDS011;60886;55.034;73.150;2022-11-04T04:18:47;14.00;;;5.53;;
72761;SDS011;60886;55.034;73.150;2022-11-04T04:21:57;12.52;;;5.00;;
72761;SDS011;60886;55.034;73.150;2022-11-04T04:24:20;11.95;;;5.40;;
72761;SDS011;60886;55.034;73.150;2022-11-04T04:27:09;14.35;;;5.90;;
72761;SDS011;60886;55.034;73.150;2022-11-04T04:29:56;12.63;;;5.10;;
72761;SDS011;60886;55.034;73.150;2022-11-04T04:33:08;14.98;;;5.90;;
72761;SDS011;60886;55.034;73.150;2022-11-04T04:35:44;11.82;;;5.53;;
72761;SDS011;60886;55.034;73.150;2022-11-04T04:38:17;20.40;;;8.80;;
72761;SDS011;60886;55.034;73.150;2022-11-04T04:43:55;15.00;;;6.57;;
72761;SDS011;60886;55.034;73.150;2022-11-04T04:46:42;14.30;;;6.50;;
72761;SDS011;60886;55.034;73.150;2022-11-04T04:49:10;12.50;;;5.35;;
72761;SDS011;60886;55.034;73.150;2022-11-04T04:51:46;13.05;;;5.45;;
72761;SDS011;60886;55.034;73.150;2022-11-04T04:54:13;14.57;;;6.18;;
72761;SDS011;60886;55.034;73.150;2022-11-04T04:56:41;13.00;;;6.10;;
72761;SDS011;60886;55.034;73.150;2022-11-04T04:59:07;11.13;;;5.07;;
72761;SDS011;60886;55.034;73.150;2022-11-04T05:01:33;14.07;;;5.50;;
72761;SDS011;60886;55.034;73.150;2022-11-04T05:04:00;12.63;;;4.70;;
72761;SDS011;60886;55.034;73.150;2022-11-04T05:06:26;12.10;;;5.25;;
72761;SDS011;60886;55.034;73.150;2022-11-04T05:08:52;15.03;;;5.00;;
72761;SDS011;60886;55.034;73.150;2022-11-04T05:11:18;10.25;;;4.40;;
72761;SDS011;60886;55.034;73.150;2022-11-04T05:13:45;10.70;;;4.30;;
72761;SDS011;60886;55.034;73.150;2022-11-04T05:16:14;7.63;;;3.15;;
72761;SDS011;60886;55.034;73.150;2022-11-04T05:18:40;10.13;;;3.30;;
72761;SDS011;60886;55.034;73.150;2022-11-04T05:21:07;7.73;;;2.83;;
72761;SDS011;60886;55.034;73.150;2022-11-04T05:23:37;7.43;;;2.90;;
72761;SDS011;60886;55.034;73.150;2022-11-04T05:26:08;7.22;;;2.60;;
72761;SDS011;60886;55.034;73.150;2022-11-04T05:28:34;9.13;;;3.28;;
72761;SDS011;60886;55.034;73.150;2022-11-04T05:31:02;10.50;;;3.80;;
72761;SDS011;60886;55.034;73.150;2022-11-04T05:33:30;11.27;;;3.80;;
72761;SDS011;60886;55.034;73.150;2022-11-04T05:36:09;11.23;;;4.00;;
72761;SDS011;60886;55.034;73.150;2022-11-04T05:38:37;9.93;;;3.58;;
72761;SDS011;60886;55.034;73.150;2022-11-04T05:41:04;9.43;;;3.63;;
72761;SDS011;60886;55.034;73.150;2022-11-04T05:43:32;9.95;;;3.40;;
72761;SDS011;60886;55.034;73.150;2022-11-04T05:46:00;9.63;;;3.17;;
72761;SDS011;60886;55.034;73.150;2022-11-04T05:48:26;10.55;;;4.50;;
72761;SDS011;60886;55.034;73.150;2022-11-04T05:50:53;10.85;;;4.70;;
72761;SDS011;60886;55.034;73.150;2022-11-04T05:53:20;8.50;;;3.78;;
72761;SDS011;60886;55.034;73.150;2022-11-04T05:55:47;11.30;;;4.22;;
72761;SDS011;60886;55.034;73.150;2022-11-04T05:58:13;13.63;;;5.67;;
72761;SDS011;60886;55.034;73.150;2022-11-04T06:00:41;12.77;;;5.45;;
72761;SDS011;60886;55.034;73.150;2022-11-04T06:03:07;11.45;;;5.18;;
72761;SDS011;60886;55.034;73.150;2022-11-04T06:05:34;11.85;;;5.38;;
72761;SDS011;60886;55.034;73.150;2022-11-04T06:08:05;13.98;;;6.28;;
72761;SDS011;60886;55.034;73.150;2022-11-04T06:10:32;12.87;;;6.47;;
72761;SDS011;60886;55.034;73.150;2022-11-04T06:12:58;14.15;;;6.57;;
72761;SDS011;60886;55.034;73.150;2022-11-04T06:15:30;12.27;;;5.57;;
72761;SDS011;60886;55.034;73.150;2022-11-04T06:17:57;13.13;;;5.68;;
72761;SDS011;60886;55.034;73.150;2022-11-04T06:20:28;18.98;;;7.57;;
72761;SDS011;60886;55.034;73.150;2022-11-04T06:22:55;15.97;;;8.17;;
72761;SDS011;60886;55.034;73.150;2022-11-04T06:25:21;16.67;;;7.63;;
72761;SDS011;60886;55.034;73.150;2022-11-04T06:27:47;16.48;;;6.97;;
72761;SDS011;60886;55.034;73.150;2022-11-04T06:30:14;16.00;;;6.82;;
72761;SDS011;60886;55.034;73.150;2022-11-04T06:32:40;14.80;;;6.65;;
72761;SDS011;60886;55.034;73.150;2022-11-04T06:35:06;14.53;;;6.77;;
72761;SDS011;60886;55.034;73.150;2022-11-04T06:37:33;15.32;;;6.97;;
72761;SDS011;60886;55.034;73.150;2022-11-04T06:40:00;16.67;;;6.50;;
72761;SDS011;60886;55.034;73.150;2022-11-04T06:42:26;12.90;;;5.90;;
72761;SDS011;60886;55.034;73.150;2022-11-04T06:44:52;13.38;;;5.35;;
72761;SDS011;60886;55.034;73.150;2022-11-04T06:47:20;11.13;;;4.87;;
72761;SDS011;60886;55.034;73.150;2022-11-04T06:49:55;13.55;;;5.28;;
72761;SDS011;60886;55.034;73.150;2022-11-04T06:52:22;17.65;;;5.60;;
72761;SDS011;60886;55.034;73.150;2022-11-04T06:54:48;15.20;;;6.40;;
72761;SDS011;60886;55.034;73.150;2022-11-04T06:57:15;18.83;;;6.60;;
72761;SDS011;60886;55.034;73.150;2022-11-04T06:59:41;13.27;;;5.53;;
72761;SDS011;60886;55.034;73.150;2022-11-04T07:02:13;13.23;;;5.50;;
72761;SDS011;60886;55.034;73.150;2022-11-04T07:04:39;17.70;;;7.03;;
72761;SDS011;60886;55.034;73.150;2022-11-04T07:07:06;14.55;;;7.28;;
72761;SDS011;60886;55.034;73.150;2022-11-04T07:09:32;14.45;;;5.85;;
72761;SDS011;60886;55.034;73.150;2022-11-04T07:11:59;12.17;;;5.70;;
72761;SDS011;60886;55.034;73.150;2022-11-04T07:14:26;9.90;;;3.20;;
72761;SDS011;60886;55.034;73.150;2022-11-04T07:16:52;9.60;;;3.03;;
72761;SDS011;60886;55.034;73.150;2022-11-04T07:19:25;9.30;;;2.53;;
72761;SDS011;60886;55.034;73.150;2022-11-04T07:21:52;7.90;;;2.50;;
72761;SDS011;60886;55.034;73.150;2022-11-04T07:24:18;8.30;;;3.03;;
72761;SDS011;60886;55.034;73.150;2022-11-04T07:26:52;14.48;;;5.60;;
72761;SDS011;60886;55.034;73.150;2022-11-04T07:29:20;14.27;;;6.10;;
72761;SDS011;60886;55.034;73.150;2022-11-04T07:31:46;14.68;;;5.70;;
72761;SDS011;60886;55.034;73.150;2022-11-04T07:34:12;15.20;;;6.50;;
72761;SDS011;60886;55.034;73.150;2022-11-04T07:36:39;15.83;;;6.97;;
72761;SDS011;60886;55.034;73.150;2022-11-04T07:39:05;15.38;;;6.80;;
72761;SDS011;60886;55.034;73.150;2022-11-04T07:41:31;11.65;;;5.10;;
72761;SDS011;60886;55.034;73.150;2022-11-04T07:43:57;9.13;;;3.70;;
72761;SDS011;60886;55.034;73.150;2022-11-04T07:46:25;8.80;;;3.25;;
72761;SDS011;60886;55.034;73.150;2022-11-04T07:48:51;9.30;;;3.73;;
72761;SDS011;60886;55.034;73.150;2022-11-04T07:51:21;14.95;;;4.80;;
72761;SDS011;60886;55.034;73.150;2022-11-04T07:53:48;11.57;;;4.70;;
72761;SDS011;60886;55.034;73.150;2022-11-04T07:56:15;9.93;;;4.40;;
72761;SDS011;60886;55.034;73.150;2022-11-04T07:58:43;9.90;;;4.38;;
72761;SDS011;60886;55.034;73.150;2022-11-04T08:01:14;16.07;;;7.93;;
72761;SDS011;60886;55.034;73.150;2022-11-04T08:03:42;13.07;;;5.72;;
72761;SDS011;60886;55.034;73.150;2022-11-04T08:06:09;11.85;;;5.28;;
72761;SDS011;60886;55.034;73.150;2022-11-04T08:08:37;12.52;;;4.88;;
72761;SDS011;60886;55.034;73.150;2022-11-04T08:11:07;14.48;;;7.15;;
72761;SDS011;60886;55.034;73.150;2022-11-04T08:13:36;12.93;;;5.50;;
72761;SDS011;60886;55.034;73.150;2022-11-04T08:16:03;12.27;;;5.00;;
72761;SDS011;60886;55.034;73.150;2022-11-04T08:18:32;19.75;;;7.45;;
72761;SDS011;60886;55.034;73.150;2022-11-04T08:20:59;14.35;;;5.18;;
72761;SDS011;60886;55.034;73.150;2022-11-04T08:23:27;13.50;;;5.22;;
72761;SDS011;60886;55.034;73.150;2022-11-04T08:25:54;18.07;;;8.07;;
72761;SDS011;60886;55.034;73.150;2022-11-04T08:28:21;12.18;;;4.25;;
72761;SDS011;60886;55.034;73.150;2022-11-04T08:30:58;10.05;;;3.30;;
72761;SDS011;60886;55.034;73.150;2022-11-04T08:33:27;11.05;;;3.90;;
72761;SDS011;60886;55.034;73.150;2022-11-04T08:35:57;9.70;;;3.70;;
72761;SDS011;60886;55.034;73.150;2022-11-04T08:38:44;7.93;;;3.00;;
72761;SDS011;60886;55.034;73.150;2022-11-04T08:41:11;7.22;;;2.67;;
72761;SDS011;60886;55.034;73.150;2022-11-04T08:43:39;10.38;;;3.70;;
72761;SDS011;60886;55.034;73.150;2022-11-04T08:46:10;8.55;;;3.00;;
72761;SDS011;60886;55.034;73.150;2022-11-04T08:48:37;12.07;;;3.35;;
72761;SDS011;60886;55.034;73.150;2022-11-04T08:51:06;9.67;;;3.17;;
72761;SDS011;60886;55.034;73.150;2022-11-04T08:53:36;8.70;;;3.72;;
72761;SDS011;60886;55.034;73.150;2022-11-04T08:56:15;9.57;;;2.72;;
72761;SDS011;60886;55.034;73.150;2022-11-04T08:58:43;10.13;;;3.83;;
72761;SDS011;60886;55.034;73.150;2022-11-04T09:01:17;15.02;;;5.40;;
72761;SDS011;60886;55.034;73.150;2022-11-04T09:03:45;17.17;;;6.17;;
72761;SDS011;60886;55.034;73.150;2022-11-04T09:06:14;14.43;;;6.40;;
72761;SDS011;60886;55.034;73.150;2022-11-04T09:08:44;12.82;;;5.10;;
72761;SDS011;60886;55.034;73.150;2022-11-04T09:11:12;10.93;;;3.47;;
72761;SDS011;60886;55.034;73.150;2022-11-04T09:13:39;9.82;;;3.80;;
72761;SDS011;60886;55.034;73.150;2022-11-04T09:16:06;11.63;;;3.90;;
72761;SDS011;60886;55.034;73.150;2022-11-04T09:18:34;11.98;;;4.57;;
72761;SDS011;60886;55.034;73.150;2022-11-04T09:21:01;12.80;;;5.57;;
72761;SDS011;60886;55.034;73.150;2022-11-04T09:23:29;12.65;;;3.17;;
72761;SDS011;60886;55.034;73.150;2022-11-04T09:25:56;10.35;;;3.60;;
72761;SDS011;60886;55.034;73.150;2022-11-04T09:28:27;11.40;;;3.87;;
72761;SDS011;60886;55.034;73.150;2022-11-04T09:30:54;13.25;;;5.40;;
72761;SDS011;60886;55.034;73.150;2022-11-04T09:33:20;16.10;;;6.60;;
72761;SDS011;60886;55.034;73.150;2022-11-04T09:35:53;16.42;;;5.25;;
72761;SDS011;60886;55.034;73.150;2022-11-04T09:38:21;12.60;;;5.30;;
72761;SDS011;60886;55.034;73.150;2022-11-04T09:40:47;14.37;;;4.30;;
72761;SDS011;60886;55.034;73.150;2022-11-04T09:45:53;17.95;;;10.38;;
72761;SDS011;60886;55.034;73.150;2022-11-04T09:48:26;17.05;;;6.28;;
72761;SDS011;60886;55.034;73.150;2022-11-04T09:50:58;15.45;;;5.70;;
72761;SDS011;60886;55.034;73.150;2022-11-04T09:53:48;17.80;;;6.00;;
72761;SDS011;60886;55.034;73.150;2022-11-04T09:56:18;15.27;;;5.15;;
72761;SDS011;60886;55.034;73.150;2022-11-04T09:58:46;18.20;;;7.63;;
72761;SDS011;60886;55.034;73.150;2022-11-04T10:18:00;8.95;;;2.92;;
72761;SDS011;60886;55.034;73.150;2022-11-04T10:26:54;13.18;;;4.00;;
72761;SDS011;60886;55.034;73.150;2022-11-04T10:29:36;10.93;;;2.70;;
72761;SDS011;60886;55.034;73.150;2022-11-04T10:32:13;8.90;;;2.08;;
72761;SDS011;60886;55.034;73.150;2022-11-04T10:37:26;6.07;;;1.55;;
72761;SDS011;60886;55.034;73.150;2022-11-04T10:40:00;8.10;;;1.80;;
72761;SDS011;60886;55.034;73.150;2022-11-04T10:42:53;14.68;;;4.55;;
72761;SDS011;60886;55.034;73.150;2022-11-04T10:45:30;7.85;;;2.17;;
72761;SDS011;60886;55.034;73.150;2022-11-04T10:48:07;8.80;;;1.90;;
72761;SDS011;60886;55.034;73.150;2022-11-04T10:50:54;6.43;;;1.90;;
72761;SDS011;60886;55.034;73.150;2022-11-04T10:53:28;7.03;;;2.00;;
72761;SDS011;60886;55.034;73.150;2022-11-04T10:56:23;7.55;;;1.80;;
72761;SDS011;60886;55.034;73.150;2022-11-04T10:58:50;7.93;;;2.00;;
72761;SDS011;60886;55.034;73.150;2022-11-04T11:01:33;10.97;;;3.97;;
72761;SDS011;60886;55.034;73.150;2022-11-04T11:04:00;8.48;;;2.17;;
72761;SDS011;60886;55.034;73.150;2022-11-04T11:06:32;7.95;;;2.17;;
72761;SDS011;60886;55.034;73.150;2022-11-04T11:09:00;8.23;;;2.00;;
72761;SDS011;60886;55.034;73.150;2022-11-04T11:11:48;7.20;;;1.77;;
72761;SDS011;60886;55.034;73.150;2022-11-04T11:14:17;7.50;;;2.20;;
72761;SDS011;60886;55.034;73.150;2022-11-04T11:16:56;9.15;;;2.25;;
72761;SDS011;60886;55.034;73.150;2022-11-04T11:20:02;8.77;;;2.20;;
72761;SDS011;60886;55.034;73.150;2022-11-04T11:22:47;8.93;;;2.40;;
72761;SDS011;60886;55.034;73.150;2022-11-04T11:28:05;7.07;;;2.33;;
72761;SDS011;60886;55.034;73.150;2022-11-04T11:33:30;8.02;;;2.28;;
72761;SDS011;60886;55.034;73.150;2022-11-04T11:36:02;7.25;;;2.30;;
72761;SDS011;60886;55.034;73.150;2022-11-04T11:38:30;10.85;;;3.20;;
72761;SDS011;60886;55.034;73.150;2022-11-04T11:41:12;7.60;;;2.50;;
72761;SDS011;60886;55.034;73.150;2022-11-04T11:43:48;7.80;;;2.85;;
72761;SDS011;60886;55.034;73.150;2022-11-04T11:46:20;8.98;;;2.53;;
72761;SDS011;60886;55.034;73.150;2022-11-04T11:48:51;8.82;;;3.17;;
72761;SDS011;60886;55.034;73.150;2022-11-04T11:51:23;11.50;;;3.40;;
72761;SDS011;60886;55.034;73.150;2022-11-04T11:54:16;11.67;;;2.97;;
72761;SDS011;60886;55.034;73.150;2022-11-04T11:56:55;9.63;;;2.63;;
72761;SDS011;60886;55.034;73.150;2022-11-04T12:02:17;9.90;;;3.55;;
72761;SDS011;60886;55.034;73.150;2022-11-04T12:04:50;10.80;;;2.97;;
72761;SDS011;60886;55.034;73.150;2022-11-04T12:10:27;10.88;;;2.55;;
72761;SDS011;60886;55.034;73.150;2022-11-04T12:13:13;9.00;;;2.85;;
72761;SDS011;60886;55.034;73.150;2022-11-04T12:21:56;9.07;;;3.20;;
72761;SDS011;60886;55.034;73.150;2022-11-04T12:24:51;9.20;;;3.00;;
72761;SDS011;60886;55.034;73.150;2022-11-04T12:30:16;11.50;;;3.67;;
72761;SDS011;60886;55.034;73.150;2022-11-04T12:44:04;21.20;;;6.65;;
72761;SDS011;60886;55.034;73.150;2022-11-04T12:55:30;12.05;;;3.40;;
72761;SDS011;60886;55.034;73.150;2022-11-04T12:58:20;12.43;;;3.30;;
72761;SDS011;60886;55.034;73.150;2022-11-04T13:01:09;10.73;;;3.53;;
72761;SDS011;60886;55.034;73.150;2022-11-04T13:15:00;12.93;;;4.53;;
72761;SDS011;60886;55.034;73.150;2022-11-04T13:17:39;13.60;;;4.50;;
72761;SDS011;60886;55.034;73.150;2022-11-04T13:20:29;12.90;;;4.97;;
72761;SDS011;60886;55.034;73.150;2022-11-04T13:23:19;16.63;;;5.13;;
72761;SDS011;60886;55.034;73.150;2022-11-04T13:26:01;17.20;;;5.20;;
72761;SDS011;60886;55.034;73.150;2022-11-04T13:28:30;16.13;;;5.82;;
72761;SDS011;60886;55.034;73.150;2022-11-04T13:36:39;14.85;;;5.05;;
72761;SDS011;60886;55.034;73.150;2022-11-04T13:39:25;15.73;;;4.78;;
72761;SDS011;60886;55.034;73.150;2022-11-04T13:45:50;17.63;;;4.90;;
72761;SDS011;60886;55.034;73.150;2022-11-04T13:48:21;17.00;;;4.80;;
72761;SDS011;60886;55.034;73.150;2022-11-04T13:51:04;14.20;;;4.65;;
72761;SDS011;60886;55.034;73.150;2022-11-04T13:53:46;14.65;;;4.90;;
72761;SDS011;60886;55.034;73.150;2022-11-04T13:56:28;16.48;;;5.47;;
72761;SDS011;60886;55.034;73.150;2022-11-04T13:59:29;12.17;;;4.37;;
72761;SDS011;60886;55.034;73.150;2022-11-04T14:10:44;15.85;;;4.07;;
72761;SDS011;60886;55.034;73.150;2022-11-04T14:18:43;14.77;;;3.85;;
72761;SDS011;60886;55.034;73.150;2022-11-04T14:21:24;14.52;;;4.55;;
72761;SDS011;60886;55.034;73.150;2022-11-04T14:26:43;11.07;;;3.50;;
72761;SDS011;60886;55.034;73.150;2022-11-04T14:29:16;12.38;;;3.80;;
72761;SDS011;60886;55.034;73.150;2022-11-04T14:31:55;10.15;;;3.70;;
72761;SDS011;60886;55.034;73.150;2022-11-04T14:34:33;11.75;;;3.85;;
72761;SDS011;60886;55.034;73.150;2022-11-04T14:37:16;10.82;;;3.22;;
72761;SDS011;60886;55.034;73.150;2022-11-04T14:39:46;12.80;;;3.60;;
72761;SDS011;60886;55.034;73.150;2022-11-04T14:45:19;12.63;;;3.83;;
72761;SDS011;60886;55.034;73.150;2022-11-04T14:48:14;11.18;;;3.45;;
72761;SDS011;60886;55.034;73.150;2022-11-04T14:50:45;11.32;;;3.60;;
72761;SDS011;60886;55.034;73.150;2022-11-04T14:53:19;10.00;;;3.37;;
72761;SDS011;60886;55.034;73.150;2022-11-04T14:56:04;10.90;;;3.72;;
72761;SDS011;60886;55.034;73.150;2022-11-04T14:58:54;10.27;;;3.22;;
72761;SDS011;60886;55.034;73.150;2022-11-04T15:01:32;10.32;;;3.40;;
72761;SDS011;60886;55.034;73.150;2022-11-04T15:06:58;9.00;;;3.10;;
72761;SDS011;60886;55.034;73.150;2022-11-04T15:18:00;12.30;;;3.83;;
72761;SDS011;60886;55.034;73.150;2022-11-04T15:20:27;12.60;;;3.87;;
72761;SDS011;60886;55.034;73.150;2022-11-04T15:22:59;14.27;;;4.25;;
72761;SDS011;60886;55.034;73.150;2022-11-04T15:25:27;9.88;;;3.63;;
72761;SDS011;60886;55.034;73.150;2022-11-04T15:27:54;11.88;;;4.07;;
72761;SDS011;60886;55.034;73.150;2022-11-04T15:30:25;11.80;;;4.47;;
72761;SDS011;60886;55.034;73.150;2022-11-04T15:32:57;12.73;;;3.93;;
72761;SDS011;60886;55.034;73.150;2022-11-04T15:35:28;12.25;;;3.90;;
72761;SDS011;60886;55.034;73.150;2022-11-04T15:37:57;13.07;;;4.00;;
72761;SDS011;60886;55.034;73.150;2022-11-04T15:40:30;10.05;;;3.75;;
72761;SDS011;60886;55.034;73.150;2022-11-04T15:43:05;14.90;;;4.13;;
72761;SDS011;60886;55.034;73.150;2022-11-04T15:45:38;11.67;;;4.20;;
72761;SDS011;60886;55.034;73.150;2022-11-04T15:51:17;14.10;;;3.83;;
72761;SDS011;60886;55.034;73.150;2022-11-04T15:53:57;12.80;;;4.32;;
72761;SDS011;60886;55.034;73.150;2022-11-04T15:56:55;11.70;;;4.10;;
72761;SDS011;60886;55.034;73.150;2022-11-04T15:59:30;12.57;;;4.20;;
72761;SDS011;60886;55.034;73.150;2022-11-04T16:02:03;13.57;;;4.63;;
72761;SDS011;60886;55.034;73.150;2022-11-04T16:04:42;15.43;;;5.18;;
72761;SDS011;60886;55.034;73.150;2022-11-04T16:09:45;12.13;;;4.55;;
72761;SDS011;60886;55.034;73.150;2022-11-04T16:12:15;11.30;;;4.50;;
72761;SDS011;60886;55.034;73.150;2022-11-04T16:14:53;15.70;;;4.93;;
72761;SDS011;60886;55.034;73.150;2022-11-04T16:17:21;13.82;;;4.78;;
72761;SDS011;60886;55.034;73.150;2022-11-04T16:19:55;15.70;;;4.68;;
72761;SDS011;60886;55.034;73.150;2022-11-04T16:22:42;13.07;;;4.20;;
72761;SDS011;60886;55.034;73.150;2022-11-04T16:25:17;12.50;;;4.70;;
72761;SDS011;60886;55.034;73.150;2022-11-04T16:27:45;11.88;;;4.35;;
72761;SDS011;60886;55.034;73.150;2022-11-04T16:30:20;13.43;;;4.47;;
72761;SDS011;60886;55.034;73.150;2022-11-04T16:32:51;12.10;;;4.40;;
72761;SDS011;60886;55.034;73.150;2022-11-04T16:35:29;13.18;;;4.40;;
72761;SDS011;60886;55.034;73.150;2022-11-04T16:37:55;11.87;;;4.43;;
72761;SDS011;60886;55.034;73.150;2022-11-04T16:40:35;13.35;;;4.47;;
72761;SDS011;60886;55.034;73.150;2022-11-04T16:43:01;12.90;;;4.90;;
72761;SDS011;60886;55.034;73.150;2022-11-04T16:45:32;12.82;;;4.43;;
72761;SDS011;60886;55.034;73.150;2022-11-04T16:47:59;12.25;;;4.47;;
72761;SDS011;60886;55.034;73.150;2022-11-04T16:50:26;15.03;;;4.80;;
72761;SDS011;60886;55.034;73.150;2022-11-04T16:52:53;13.05;;;4.57;;
72761;SDS011;60886;55.034;73.150;2022-11-04T16:55:20;11.52;;;4.70;;
72761;SDS011;60886;55.034;73.150;2022-11-04T16:57:57;14.90;;;4.55;;
72761;SDS011;60886;55.034;73.150;2022-11-04T17:00:27;12.82;;;4.47;;
72761;SDS011;60886;55.034;73.150;2022-11-04T17:02:58;12.87;;;4.53;;
72761;SDS011;60886;55.034;73.150;2022-11-04T17:05:36;13.60;;;4.60;;
72761;SDS011;60886;55.034;73.150;2022-11-04T17:08:13;14.13;;;4.47;;
72761;SDS011;60886;55.034;73.150;2022-11-04T17:10:49;12.50;;;4.40;;
72761;SDS011;60886;55.034;73.150;2022-11-04T17:13:16;16.02;;;5.22;;
72761;SDS011;60886;55.034;73.150;2022-11-04T17:15:43;14.93;;;4.90;;
72761;SDS011;60886;55.034;73.150;2022-11-04T17:18:13;12.93;;;4.80;;
72761;SDS011;60886;55.034;73.150;2022-11-04T17:20:47;14.65;;;5.15;;
72761;SDS011;60886;55.034;73.150;2022-11-04T17:23:17;12.35;;;4.97;;
72761;SDS011;60886;55.034;73.150;2022-11-04T17:25:44;13.93;;;4.97;;
72761;SDS011;60886;55.034;73.150;2022-11-04T17:28:22;12.80;;;4.97;;
72761;SDS011;60886;55.034;73.150;2022-11-04T17:30:48;17.73;;;5.28;;
72761;SDS011;60886;55.034;73.150;2022-11-04T17:33:16;12.85;;;4.47;;
72761;SDS011;60886;55.034;73.150;2022-11-04T17:35:45;16.40;;;5.03;;
72761;SDS011;60886;55.034;73.150;2022-11-04T17:38:23;12.88;;;4.75;;
72761;SDS011;60886;55.034;73.150;2022-11-04T17:40:50;15.33;;;5.10;;
72761;SDS011;60886;55.034;73.150;2022-11-04T17:43:44;11.65;;;4.68;;
72761;SDS011;60886;55.034;73.150;2022-11-04T17:46:29;12.55;;;4.97;;